sensor_id;sensor_type;location;lat;lon;timestamp;P1;durP1;ratioP1;P2;durP2;ratioP2
54177;SDS011;40085;53.004;6.770;2023-10-09T00:00:56;1.10;;;1.00;;
54177;SDS011;40085;53.004;6.770;2023-10-09T00:03:41;2.10;;;1.33;;
54177;SDS011;40085;53.004;6.770;2023-10-09T00:06:08;1.73;;;1.42;;
54177;SDS011;40085;53.004;6.770;2023-10-09T00:08:42;1.65;;;1.17;;
54177;SDS011;40085;53.004;6.770;2023-10-09T00:11:13;1.60;;;1.20;;
54177;SDS011;40085;53.004;6.770;2023-10-09T00:13:42;1.48;;;1.20;;
54177;SDS011;40085;53.004;6.770;2023-10-09T00:16:14;1.20;;;1.10;;
54177;SDS011;40085;53.004;6.770;2023-10-09T00:18:58;1.70;;;1.33;;
54177;SDS011;40085;53.004;6.770;2023-10-09T00:21:38;1.95;;;1.35;;
54177;SDS011;40085;53.004;6.770;2023-10-09T00:24:05;1.20;;;1.10;;
54177;SDS011;40085;53.004;6.770;2023-10-09T00:26:38;1.42;;;1.30;;
54177;SDS011;40085;53.004;6.770;2023-10-09T00:29:09;1.55;;;1.35;;
54177;SDS011;40085;53.004;6.770;2023-10-09T00:31:40;1.70;;;1.60;;
54177;SDS011;40085;53.004;6.770;2023-10-09T00:34:15;2.03;;;1.67;;
54177;SDS011;40085;53.004;6.770;2023-10-09T00:36:44;1.50;;;1.35;;
54177;SDS011;40085;53.004;6.770;2023-10-09T00:39:17;1.77;;;1.38;;
54177;SDS011;40085;53.004;6.770;2023-10-09T00:41:58;1.95;;;1.63;;
54177;SDS011;40085;53.004;6.770;2023-10-09T00:44:26;1.63;;;1.25;;
54177;SDS011;40085;53.004;6.770;2023-10-09T00:47:03;2.72;;;1.73;;
54177;SDS011;40085;53.004;6.770;2023-10-09T00:50:03;3.80;;;1.80;;
54177;SDS011;40085;53.004;6.770;2023-10-09T00:52:40;1.83;;;1.55;;
54177;SDS011;40085;53.004;6.770;2023-10-09T00:55:14;2.53;;;1.80;;
54177;SDS011;40085;53.004;6.770;2023-10-09T00:57:45;3.22;;;1.70;;
54177;SDS011;40085;53.004;6.770;2023-10-09T01:00:24;2.03;;;1.60;;
54177;SDS011;40085;53.004;6.770;2023-10-09T01:03:05;2.47;;;1.88;;
54177;SDS011;40085;53.004;6.770;2023-10-09T01:05:45;2.70;;;2.13;;
54177;SDS011;40085;53.004;6.770;2023-10-09T01:08:41;4.18;;;2.10;;
54177;SDS011;40085;53.004;6.770;2023-10-09T01:13:41;3.50;;;2.20;;
54177;SDS011;40085;53.004;6.770;2023-10-09T01:16:13;2.67;;;2.20;;
54177;SDS011;40085;53.004;6.770;2023-10-09T01:18:46;3.63;;;2.35;;
54177;SDS011;40085;53.004;6.770;2023-10-09T01:21:18;3.10;;;2.15;;
54177;SDS011;40085;53.004;6.770;2023-10-09T01:23:49;3.70;;;2.35;;
54177;SDS011;40085;53.004;6.770;2023-10-09T01:26:34;2.85;;;2.15;;
54177;SDS011;40085;53.004;6.770;2023-10-09T01:29:08;3.08;;;2.30;;
54177;SDS011;40085;53.004;6.770;2023-10-09T01:31:49;3.58;;;2.53;;
54177;SDS011;40085;53.004;6.770;2023-10-09T01:34:36;3.17;;;2.55;;
54177;SDS011;40085;53.004;6.770;2023-10-09T01:37:08;2.58;;;2.20;;
54177;SDS011;40085;53.004;6.770;2023-10-09T01:39:53;2.55;;;2.35;;
54177;SDS011;40085;53.004;6.770;2023-10-09T01:42:23;2.92;;;2.60;;
54177;SDS011;40085;53.004;6.770;2023-10-09T01:44:55;3.70;;;2.75;;
54177;SDS011;40085;53.004;6.770;2023-10-09T01:47:23;3.63;;;2.65;;
54177;SDS011;40085;53.004;6.770;2023-10-09T01:49:50;3.63;;;2.95;;
54177;SDS011;40085;53.004;6.770;2023-10-09T01:52:18;4.50;;;3.50;;
54177;SDS011;40085;53.004;6.770;2023-10-09T01:54:45;3.17;;;2.88;;
54177;SDS011;40085;53.004;6.770;2023-10-09T01:57:15;3.17;;;2.88;;
54177;SDS011;40085;53.004;6.770;2023-10-09T01:59:47;3.15;;;2.75;;
54177;SDS011;40085;53.004;6.770;2023-10-09T02:02:14;3.47;;;3.13;;
54177;SDS011;40085;53.004;6.770;2023-10-09T02:05:03;5.10;;;4.10;;
54177;SDS011;40085;53.004;6.770;2023-10-09T02:07:39;4.45;;;3.50;;
54177;SDS011;40085;53.004;6.770;2023-10-09T02:10:09;4.45;;;3.95;;
54177;SDS011;40085;53.004;6.770;2023-10-09T02:12:58;4.10;;;3.40;;
54177;SDS011;40085;53.004;6.770;2023-10-09T02:15:25;4.68;;;4.20;;
54177;SDS011;40085;53.004;6.770;2023-10-09T02:18:10;4.15;;;3.30;;
54177;SDS011;40085;53.004;6.770;2023-10-09T02:20:49;4.75;;;3.67;;
54177;SDS011;40085;53.004;6.770;2023-10-09T02:23:36;4.20;;;3.80;;
54177;SDS011;40085;53.004;6.770;2023-10-09T02:26:06;4.28;;;3.88;;
54177;SDS011;40085;53.004;6.770;2023-10-09T02:28:50;4.53;;;3.97;;
54177;SDS011;40085;53.004;6.770;2023-10-09T02:31:35;5.88;;;3.90;;
54177;SDS011;40085;53.004;6.770;2023-10-09T02:34:00;4.85;;;4.35;;
54177;SDS011;40085;53.004;6.770;2023-10-09T02:36:30;4.68;;;4.10;;
54177;SDS011;40085;53.004;6.770;2023-10-09T02:38:55;4.05;;;3.65;;
54177;SDS011;40085;53.004;6.770;2023-10-09T02:41:21;4.15;;;3.75;;
54177;SDS011;40085;53.004;6.770;2023-10-09T02:43:53;3.75;;;3.40;;
54177;SDS011;40085;53.004;6.770;2023-10-09T02:46:23;5.22;;;4.00;;
54177;SDS011;40085;53.004;6.770;2023-10-09T02:48:56;4.30;;;3.90;;
54177;SDS011;40085;53.004;6.770;2023-10-09T02:51:26;4.55;;;3.75;;
54177;SDS011;40085;53.004;6.770;2023-10-09T02:53:52;4.65;;;3.85;;
54177;SDS011;40085;53.004;6.770;2023-10-09T02:56:18;4.85;;;4.30;;
54177;SDS011;40085;53.004;6.770;2023-10-09T02:58:52;4.85;;;4.35;;
54177;SDS011;40085;53.004;6.770;2023-10-09T03:01:30;4.68;;;4.28;;
54177;SDS011;40085;53.004;6.770;2023-10-09T03:03:56;4.65;;;4.25;;
54177;SDS011;40085;53.004;6.770;2023-10-09T03:06:24;4.63;;;4.22;;
54177;SDS011;40085;53.004;6.770;2023-10-09T03:08:58;5.22;;;4.60;;
54177;SDS011;40085;53.004;6.770;2023-10-09T03:11:25;5.47;;;5.05;;
54177;SDS011;40085;53.004;6.770;2023-10-09T03:13:57;4.95;;;4.45;;
54177;SDS011;40085;53.004;6.770;2023-10-09T03:16:22;5.00;;;4.50;;
54177;SDS011;40085;53.004;6.770;2023-10-09T03:18:49;4.78;;;4.28;;
54177;SDS011;40085;53.004;6.770;2023-10-09T03:21:17;4.95;;;4.45;;
54177;SDS011;40085;53.004;6.770;2023-10-09T03:23:45;5.25;;;4.75;;
54177;SDS011;40085;53.004;6.770;2023-10-09T03:26:17;5.57;;;5.05;;
54177;SDS011;40085;53.004;6.770;2023-10-09T03:28:47;6.18;;;5.32;;
54177;SDS011;40085;53.004;6.770;2023-10-09T03:31:13;4.93;;;4.43;;
54177;SDS011;40085;53.004;6.770;2023-10-09T03:33:39;5.78;;;4.72;;
54177;SDS011;40085;53.004;6.770;2023-10-09T03:36:06;5.85;;;5.28;;
54177;SDS011;40085;53.004;6.770;2023-10-09T03:38:37;5.72;;;5.13;;
54177;SDS011;40085;53.004;6.770;2023-10-09T03:41:07;5.78;;;5.15;;
54177;SDS011;40085;53.004;6.770;2023-10-09T03:46:09;4.60;;;4.20;;
54177;SDS011;40085;53.004;6.770;2023-10-09T03:48:45;5.63;;;4.85;;
54177;SDS011;40085;53.004;6.770;2023-10-09T03:51:14;5.75;;;5.22;;
54177;SDS011;40085;53.004;6.770;2023-10-09T03:53:51;5.22;;;4.70;;
54177;SDS011;40085;53.004;6.770;2023-10-09T03:56:20;4.97;;;4.55;;
54177;SDS011;40085;53.004;6.770;2023-10-09T03:58:49;5.30;;;4.80;;
54177;SDS011;40085;53.004;6.770;2023-10-09T04:01:19;6.00;;;5.45;;
54177;SDS011;40085;53.004;6.770;2023-10-09T04:04:02;6.22;;;5.25;;
54177;SDS011;40085;53.004;6.770;2023-10-09T04:06:31;5.65;;;4.95;;
54177;SDS011;40085;53.004;6.770;2023-10-09T04:08:58;5.60;;;5.10;;
54177;SDS011;40085;53.004;6.770;2023-10-09T04:11:43;5.68;;;5.18;;
54177;SDS011;40085;53.004;6.770;2023-10-09T04:14:15;4.60;;;4.20;;
54177;SDS011;40085;53.004;6.770;2023-10-09T04:16:57;6.28;;;5.68;;
54177;SDS011;40085;53.004;6.770;2023-10-09T04:19:49;5.25;;;4.75;;
54177;SDS011;40085;53.004;6.770;2023-10-09T04:22:38;5.82;;;5.25;;
54177;SDS011;40085;53.004;6.770;2023-10-09T04:25:07;5.40;;;4.90;;
54177;SDS011;40085;53.004;6.770;2023-10-09T04:27:40;6.47;;;5.82;;
54177;SDS011;40085;53.004;6.770;2023-10-09T04:30:06;5.43;;;4.93;;
54177;SDS011;40085;53.004;6.770;2023-10-09T04:32:33;5.78;;;5.03;;
54177;SDS011;40085;53.004;6.770;2023-10-09T04:35:00;6.03;;;4.78;;
54177;SDS011;40085;53.004;6.770;2023-10-09T04:37:58;5.10;;;4.60;;
54177;SDS011;40085;53.004;6.770;2023-10-09T04:40:32;5.28;;;4.78;;
54177;SDS011;40085;53.004;6.770;2023-10-09T04:43:15;5.68;;;5.15;;
54177;SDS011;40085;53.004;6.770;2023-10-09T04:45:47;5.20;;;4.68;;
54177;SDS011;40085;53.004;6.770;2023-10-09T04:48:33;5.10;;;4.57;;
54177;SDS011;40085;53.004;6.770;2023-10-09T04:51:02;6.72;;;4.97;;
54177;SDS011;40085;53.004;6.770;2023-10-09T04:53:47;5.32;;;4.78;;
54177;SDS011;40085;53.004;6.770;2023-10-09T04:56:25;5.53;;;4.60;;
54177;SDS011;40085;53.004;6.770;2023-10-09T04:58:56;6.45;;;5.85;;
54177;SDS011;40085;53.004;6.770;2023-10-09T05:01:28;5.28;;;4.72;;
54177;SDS011;40085;53.004;6.770;2023-10-09T05:04:01;5.55;;;5.10;;
54177;SDS011;40085;53.004;6.770;2023-10-09T05:06:29;4.65;;;4.25;;
54177;SDS011;40085;53.004;6.770;2023-10-09T05:09:07;5.72;;;5.18;;
54177;SDS011;40085;53.004;6.770;2023-10-09T05:11:34;5.50;;;4.95;;
54177;SDS011;40085;53.004;6.770;2023-10-09T05:14:18;5.05;;;4.55;;
54177;SDS011;40085;53.004;6.770;2023-10-09T05:17:03;5.60;;;4.80;;
54177;SDS011;40085;53.004;6.770;2023-10-09T05:19:34;5.43;;;4.93;;
54177;SDS011;40085;53.004;6.770;2023-10-09T05:22:18;5.88;;;4.78;;
54177;SDS011;40085;53.004;6.770;2023-10-09T05:25:03;6.15;;;4.88;;
54177;SDS011;40085;53.004;6.770;2023-10-09T05:27:41;5.63;;;5.15;;
54177;SDS011;40085;53.004;6.770;2023-10-09T05:30:15;5.13;;;4.63;;
54177;SDS011;40085;53.004;6.770;2023-10-09T05:32:51;5.13;;;4.38;;
54177;SDS011;40085;53.004;6.770;2023-10-09T05:35:20;5.72;;;5.13;;
54177;SDS011;40085;53.004;6.770;2023-10-09T05:38:24;5.05;;;4.55;;
54177;SDS011;40085;53.004;6.770;2023-10-09T05:40:50;5.22;;;4.72;;
54177;SDS011;40085;53.004;6.770;2023-10-09T05:43:19;5.05;;;4.32;;
54177;SDS011;40085;53.004;6.770;2023-10-09T05:46:04;5.20;;;4.70;;
54177;SDS011;40085;53.004;6.770;2023-10-09T05:48:34;4.95;;;4.45;;
54177;SDS011;40085;53.004;6.770;2023-10-09T05:51:03;4.97;;;4.45;;
54177;SDS011;40085;53.004;6.770;2023-10-09T05:53:34;5.63;;;4.43;;
54177;SDS011;40085;53.004;6.770;2023-10-09T05:56:20;4.80;;;4.13;;
54177;SDS011;40085;53.004;6.770;2023-10-09T05:59:17;4.88;;;4.35;;
54177;SDS011;40085;53.004;6.770;2023-10-09T06:02:09;4.22;;;3.78;;
54177;SDS011;40085;53.004;6.770;2023-10-09T06:04:55;4.32;;;3.85;;
54177;SDS011;40085;53.004;6.770;2023-10-09T06:07:22;5.25;;;4.07;;
54177;SDS011;40085;53.004;6.770;2023-10-09T06:10:10;4.18;;;3.78;;
54177;SDS011;40085;53.004;6.770;2023-10-09T06:12:56;4.72;;;4.13;;
54177;SDS011;40085;53.004;6.770;2023-10-09T06:15:28;3.75;;;3.45;;
54177;SDS011;40085;53.004;6.770;2023-10-09T06:18:08;3.50;;;3.20;;
54177;SDS011;40085;53.004;6.770;2023-10-09T06:21:03;3.63;;;3.33;;
54177;SDS011;40085;53.004;6.770;2023-10-09T06:23:33;3.60;;;3.30;;
54177;SDS011;40085;53.004;6.770;2023-10-09T06:26:17;5.18;;;3.67;;
54177;SDS011;40085;53.004;6.770;2023-10-09T06:28:49;3.65;;;2.60;;
54177;SDS011;40085;53.004;6.770;2023-10-09T06:31:36;4.13;;;3.30;;
54177;SDS011;40085;53.004;6.770;2023-10-09T06:34:20;4.22;;;3.05;;
54177;SDS011;40085;53.004;6.770;2023-10-09T06:36:57;4.60;;;2.70;;
54177;SDS011;40085;53.004;6.770;2023-10-09T06:39:28;3.58;;;2.58;;
54177;SDS011;40085;53.004;6.770;2023-10-09T06:42:13;3.85;;;3.00;;
54177;SDS011;40085;53.004;6.770;2023-10-09T06:45:01;4.10;;;2.67;;
54177;SDS011;40085;53.004;6.770;2023-10-09T06:47:29;2.67;;;2.40;;
54177;SDS011;40085;53.004;6.770;2023-10-09T06:50:01;3.38;;;2.88;;
54177;SDS011;40085;53.004;6.770;2023-10-09T06:52:46;3.53;;;2.42;;
54177;SDS011;40085;53.004;6.770;2023-10-09T06:55:37;2.72;;;2.28;;
54177;SDS011;40085;53.004;6.770;2023-10-09T06:58:19;3.50;;;2.85;;
54177;SDS011;40085;53.004;6.770;2023-10-09T07:00:53;2.83;;;2.25;;
54177;SDS011;40085;53.004;6.770;2023-10-09T07:03:38;3.35;;;2.22;;
54177;SDS011;40085;53.004;6.770;2023-10-09T07:06:17;3.72;;;2.42;;
54177;SDS011;40085;53.004;6.770;2023-10-09T07:08:52;3.92;;;2.20;;
54177;SDS011;40085;53.004;6.770;2023-10-09T07:11:34;3.13;;;2.33;;
54177;SDS011;40085;53.004;6.770;2023-10-09T07:14:09;3.33;;;2.20;;
54177;SDS011;40085;53.004;6.770;2023-10-09T07:16:57;2.70;;;2.10;;
54177;SDS011;40085;53.004;6.770;2023-10-09T07:19:25;2.50;;;1.95;;
54177;SDS011;40085;53.004;6.770;2023-10-09T07:22:20;2.50;;;2.03;;
54177;SDS011;40085;53.004;6.770;2023-10-09T07:24:55;3.15;;;2.22;;
54177;SDS011;40085;53.004;6.770;2023-10-09T07:27:30;3.70;;;1.85;;
54177;SDS011;40085;53.004;6.770;2023-10-09T07:30:19;2.60;;;1.98;;
54177;SDS011;40085;53.004;6.770;2023-10-09T07:33:03;2.33;;;2.13;;
54177;SDS011;40085;53.004;6.770;2023-10-09T07:35:35;2.33;;;1.90;;
54177;SDS011;40085;53.004;6.770;2023-10-09T07:38:12;2.60;;;2.17;;
54177;SDS011;40085;53.004;6.770;2023-10-09T07:40:44;2.95;;;2.28;;
54177;SDS011;40085;53.004;6.770;2023-10-09T07:43:30;2.75;;;2.20;;
54177;SDS011;40085;53.004;6.770;2023-10-09T07:46:16;3.70;;;2.28;;
54177;SDS011;40085;53.004;6.770;2023-10-09T07:49:04;4.35;;;2.28;;
54177;SDS011;40085;53.004;6.770;2023-10-09T07:51:46;3.03;;;1.85;;
54177;SDS011;40085;53.004;6.770;2023-10-09T07:54:12;3.92;;;2.25;;
54177;SDS011;40085;53.004;6.770;2023-10-09T07:56:57;4.82;;;2.33;;
54177;SDS011;40085;53.004;6.770;2023-10-09T07:59:33;2.55;;;2.03;;
54177;SDS011;40085;53.004;6.770;2023-10-09T08:02:06;3.50;;;2.33;;
54177;SDS011;40085;53.004;6.770;2023-10-09T08:04:38;3.15;;;2.05;;
54177;SDS011;40085;53.004;6.770;2023-10-09T08:07:13;3.13;;;1.90;;
54177;SDS011;40085;53.004;6.770;2023-10-09T08:09:51;3.35;;;1.90;;
54177;SDS011;40085;53.004;6.770;2023-10-09T08:12:35;3.05;;;2.25;;
54177;SDS011;40085;53.004;6.770;2023-10-09T08:15:23;2.33;;;1.88;;
54177;SDS011;40085;53.004;6.770;2023-10-09T08:18:08;3.17;;;1.88;;
54177;SDS011;40085;53.004;6.770;2023-10-09T08:23:23;3.47;;;2.20;;
54177;SDS011;40085;53.004;6.770;2023-10-09T08:26:04;2.75;;;1.83;;
54177;SDS011;40085;53.004;6.770;2023-10-09T08:28:38;3.45;;;1.70;;
54177;SDS011;40085;53.004;6.770;2023-10-09T08:31:08;3.10;;;2.25;;
54177;SDS011;40085;53.004;6.770;2023-10-09T08:36:27;4.18;;;2.10;;
54177;SDS011;40085;53.004;6.770;2023-10-09T08:38:56;3.30;;;1.95;;
54177;SDS011;40085;53.004;6.770;2023-10-09T08:41:39;2.67;;;1.95;;
54177;SDS011;40085;53.004;6.770;2023-10-09T08:44:05;3.45;;;2.22;;
54177;SDS011;40085;53.004;6.770;2023-10-09T08:46:32;3.97;;;1.70;;
54177;SDS011;40085;53.004;6.770;2023-10-09T08:48:59;3.25;;;2.50;;
54177;SDS011;40085;53.004;6.770;2023-10-09T08:51:25;2.03;;;1.45;;
54177;SDS011;40085;53.004;6.770;2023-10-09T08:53:52;2.60;;;1.73;;
54177;SDS011;40085;53.004;6.770;2023-10-09T08:56:19;3.63;;;2.15;;
54177;SDS011;40085;53.004;6.770;2023-10-09T08:58:50;4.03;;;2.25;;
54177;SDS011;40085;53.004;6.770;2023-10-09T09:01:20;3.55;;;2.20;;
54177;SDS011;40085;53.004;6.770;2023-10-09T09:03:47;3.17;;;2.28;;
54177;SDS011;40085;53.004;6.770;2023-10-09T09:06:15;4.00;;;2.63;;
54177;SDS011;40085;53.004;6.770;2023-10-09T09:08:44;2.38;;;1.80;;
54177;SDS011;40085;53.004;6.770;2023-10-09T09:11:15;3.50;;;1.90;;
54177;SDS011;40085;53.004;6.770;2023-10-09T09:16:24;2.92;;;1.60;;
54177;SDS011;40085;53.004;6.770;2023-10-09T09:18:57;2.92;;;1.63;;
54177;SDS011;40085;53.004;6.770;2023-10-09T09:21:35;2.03;;;1.58;;
54177;SDS011;40085;53.004;6.770;2023-10-09T09:24:05;3.63;;;2.00;;
54177;SDS011;40085;53.004;6.770;2023-10-09T09:26:41;2.22;;;1.88;;
54177;SDS011;40085;53.004;6.770;2023-10-09T09:29:14;3.53;;;1.77;;
54177;SDS011;40085;53.004;6.770;2023-10-09T09:31:55;2.25;;;1.73;;
54177;SDS011;40085;53.004;6.770;2023-10-09T09:34:51;3.40;;;1.77;;
54177;SDS011;40085;53.004;6.770;2023-10-09T09:37:24;2.65;;;1.85;;
54177;SDS011;40085;53.004;6.770;2023-10-09T09:39:53;2.00;;;1.70;;
54177;SDS011;40085;53.004;6.770;2023-10-09T09:42:22;2.47;;;1.60;;
54177;SDS011;40085;53.004;6.770;2023-10-09T09:44:52;3.20;;;2.03;;
54177;SDS011;40085;53.004;6.770;2023-10-09T09:47:18;2.80;;;2.08;;
54177;SDS011;40085;53.004;6.770;2023-10-09T09:49:53;3.03;;;2.20;;
54177;SDS011;40085;53.004;6.770;2023-10-09T09:52:28;2.92;;;1.63;;
54177;SDS011;40085;53.004;6.770;2023-10-09T09:54:54;3.33;;;2.15;;
54177;SDS011;40085;53.004;6.770;2023-10-09T09:57:22;2.45;;;1.42;;
54177;SDS011;40085;53.004;6.770;2023-10-09T09:59:52;2.17;;;1.70;;
54177;SDS011;40085;53.004;6.770;2023-10-09T10:02:27;2.00;;;1.63;;
54177;SDS011;40085;53.004;6.770;2023-10-09T10:04:58;2.53;;;1.80;;
54177;SDS011;40085;53.004;6.770;2023-10-09T10:07:28;2.63;;;1.83;;
54177;SDS011;40085;53.004;6.770;2023-10-09T10:10:04;1.98;;;1.73;;
54177;SDS011;40085;53.004;6.770;2023-10-09T10:16:08;2.90;;;1.70;;
54177;SDS011;40085;53.004;6.770;2023-10-09T10:18:56;3.38;;;1.73;;
54177;SDS011;40085;53.004;6.770;2023-10-09T10:21:28;2.35;;;1.70;;
54177;SDS011;40085;53.004;6.770;2023-10-09T10:24:03;2.63;;;1.90;;
54177;SDS011;40085;53.004;6.770;2023-10-09T10:26:35;2.47;;;1.67;;
54177;SDS011;40085;53.004;6.770;2023-10-09T10:29:14;3.63;;;1.88;;
54177;SDS011;40085;53.004;6.770;2023-10-09T10:31:54;2.10;;;1.90;;
54177;SDS011;40085;53.004;6.770;2023-10-09T10:34:26;2.33;;;1.50;;
54177;SDS011;40085;53.004;6.770;2023-10-09T10:37:21;1.90;;;1.33;;
54177;SDS011;40085;53.004;6.770;2023-10-09T10:40:50;3.50;;;1.85;;
54177;SDS011;40085;53.004;6.770;2023-10-09T10:43:15;3.03;;;1.77;;
54177;SDS011;40085;53.004;6.770;2023-10-09T10:46:01;2.45;;;1.65;;
54177;SDS011;40085;53.004;6.770;2023-10-09T10:48:34;2.95;;;1.80;;
54177;SDS011;40085;53.004;6.770;2023-10-09T10:51:04;4.22;;;2.33;;
54177;SDS011;40085;53.004;6.770;2023-10-09T10:53:30;2.50;;;1.88;;
54177;SDS011;40085;53.004;6.770;2023-10-09T10:56:12;3.40;;;1.77;;
54177;SDS011;40085;53.004;6.770;2023-10-09T10:58:41;3.40;;;1.77;;
54177;SDS011;40085;53.004;6.770;2023-10-09T11:01:35;3.00;;;1.70;;
54177;SDS011;40085;53.004;6.770;2023-10-09T11:04:20;2.60;;;1.55;;
54177;SDS011;40085;53.004;6.770;2023-10-09T11:07:04;2.72;;;1.63;;
54177;SDS011;40085;53.004;6.770;2023-10-09T11:15:07;2.97;;;1.55;;
54177;SDS011;40085;53.004;6.770;2023-10-09T11:18:00;3.63;;;1.67;;
54177;SDS011;40085;53.004;6.770;2023-10-09T11:20:59;2.95;;;1.60;;
54177;SDS011;40085;53.004;6.770;2023-10-09T11:23:27;2.83;;;2.05;;
54177;SDS011;40085;53.004;6.770;2023-10-09T11:26:00;3.63;;;1.63;;
54177;SDS011;40085;53.004;6.770;2023-10-09T11:28:44;2.65;;;2.10;;
54177;SDS011;40085;53.004;6.770;2023-10-09T11:31:22;2.58;;;1.63;;
54177;SDS011;40085;53.004;6.770;2023-10-09T11:33:51;3.13;;;1.83;;
54177;SDS011;40085;53.004;6.770;2023-10-09T11:36:19;3.05;;;1.90;;
54177;SDS011;40085;53.004;6.770;2023-10-09T11:38:58;2.22;;;1.48;;
54177;SDS011;40085;53.004;6.770;2023-10-09T11:41:43;2.67;;;1.65;;
54177;SDS011;40085;53.004;6.770;2023-10-09T11:44:09;2.78;;;1.73;;
54177;SDS011;40085;53.004;6.770;2023-10-09T11:46:59;2.65;;;1.60;;
54177;SDS011;40085;53.004;6.770;2023-10-09T11:49:56;2.97;;;1.52;;
54177;SDS011;40085;53.004;6.770;2023-10-09T11:52:25;1.67;;;1.40;;
54177;SDS011;40085;53.004;6.770;2023-10-09T11:55:00;2.03;;;1.50;;
54177;SDS011;40085;53.004;6.770;2023-10-09T11:57:28;3.63;;;1.85;;
54177;SDS011;40085;53.004;6.770;2023-10-09T11:59:58;2.22;;;1.60;;
54177;SDS011;40085;53.004;6.770;2023-10-09T12:02:25;3.05;;;1.33;;
54177;SDS011;40085;53.004;6.770;2023-10-09T12:04:51;2.08;;;1.40;;
54177;SDS011;40085;53.004;6.770;2023-10-09T12:07:20;2.13;;;1.48;;
54177;SDS011;40085;53.004;6.770;2023-10-09T12:09:47;1.60;;;1.00;;
54177;SDS011;40085;53.004;6.770;2023-10-09T12:12:13;2.08;;;1.15;;
54177;SDS011;40085;53.004;6.770;2023-10-09T12:14:39;2.35;;;1.23;;
54177;SDS011;40085;53.004;6.770;2023-10-09T12:17:05;2.03;;;1.27;;
54177;SDS011;40085;53.004;6.770;2023-10-09T12:19:37;3.78;;;1.55;;
54177;SDS011;40085;53.004;6.770;2023-10-09T12:22:07;1.50;;;0.90;;
54177;SDS011;40085;53.004;6.770;2023-10-09T12:24:41;1.40;;;1.00;;
54177;SDS011;40085;53.004;6.770;2023-10-09T12:27:08;2.33;;;1.10;;
54177;SDS011;40085;53.004;6.770;2023-10-09T12:29:36;1.80;;;1.05;;
54177;SDS011;40085;53.004;6.770;2023-10-09T12:32:02;1.58;;;1.23;;
54177;SDS011;40085;53.004;6.770;2023-10-09T12:34:28;1.80;;;1.10;;
54177;SDS011;40085;53.004;6.770;2023-10-09T12:36:59;1.75;;;1.20;;
54177;SDS011;40085;53.004;6.770;2023-10-09T12:39:27;1.10;;;0.90;;
54177;SDS011;40085;53.004;6.770;2023-10-09T12:41:59;2.30;;;1.10;;
54177;SDS011;40085;53.004;6.770;2023-10-09T12:44:34;3.13;;;1.55;;
54177;SDS011;40085;53.004;6.770;2023-10-09T12:47:07;1.05;;;0.90;;
54177;SDS011;40085;53.004;6.770;2023-10-09T12:49:36;1.20;;;0.88;;
54177;SDS011;40085;53.004;6.770;2023-10-09T12:52:06;1.67;;;1.10;;
54177;SDS011;40085;53.004;6.770;2023-10-09T12:54:44;2.42;;;1.13;;
54177;SDS011;40085;53.004;6.770;2023-10-09T12:57:12;0.70;;;0.70;;
54177;SDS011;40085;53.004;6.770;2023-10-09T12:59:39;1.02;;;0.90;;
54177;SDS011;40085;53.004;6.770;2023-10-09T13:02:10;0.90;;;0.70;;
54177;SDS011;40085;53.004;6.770;2023-10-09T13:04:37;2.70;;;1.40;;
54177;SDS011;40085;53.004;6.770;2023-10-09T13:07:06;1.15;;;0.82;;
54177;SDS011;40085;53.004;6.770;2023-10-09T13:09:32;0.50;;;0.50;;
54177;SDS011;40085;53.004;6.770;2023-10-09T13:12:07;3.22;;;1.15;;
54177;SDS011;40085;53.004;6.770;2023-10-09T13:14:34;2.55;;;1.15;;
54177;SDS011;40085;53.004;6.770;2023-10-09T13:17:00;2.50;;;1.23;;
54177;SDS011;40085;53.004;6.770;2023-10-09T13:19:34;1.25;;;0.70;;
54177;SDS011;40085;53.004;6.770;2023-10-09T13:22:00;1.10;;;0.80;;
54177;SDS011;40085;53.004;6.770;2023-10-09T13:24:28;1.35;;;0.80;;
54177;SDS011;40085;53.004;6.770;2023-10-09T13:26:55;1.27;;;1.15;;
54177;SDS011;40085;53.004;6.770;2023-10-09T13:29:23;3.13;;;1.23;;
54177;SDS011;40085;53.004;6.770;2023-10-09T13:31:50;1.40;;;0.80;;
54177;SDS011;40085;53.004;6.770;2023-10-09T13:34:27;1.88;;;0.75;;
54177;SDS011;40085;53.004;6.770;2023-10-09T13:36:53;0.95;;;0.80;;
54177;SDS011;40085;53.004;6.770;2023-10-09T13:39:20;2.38;;;0.95;;
54177;SDS011;40085;53.004;6.770;2023-10-09T13:41:47;0.95;;;0.75;;
54177;SDS011;40085;53.004;6.770;2023-10-09T13:44:13;1.10;;;0.63;;
54177;SDS011;40085;53.004;6.770;2023-10-09T13:46:40;1.35;;;0.85;;
54177;SDS011;40085;53.004;6.770;2023-10-09T13:49:09;1.13;;;0.63;;
54177;SDS011;40085;53.004;6.770;2023-10-09T13:51:42;0.60;;;0.50;;
54177;SDS011;40085;53.004;6.770;2023-10-09T13:54:12;1.15;;;1.02;;
54177;SDS011;40085;53.004;6.770;2023-10-09T13:57:08;1.45;;;0.80;;
54177;SDS011;40085;53.004;6.770;2023-10-09T13:59:36;1.35;;;0.88;;
54177;SDS011;40085;53.004;6.770;2023-10-09T14:02:07;0.90;;;0.90;;
54177;SDS011;40085;53.004;6.770;2023-10-09T14:04:41;1.00;;;0.93;;
54177;SDS011;40085;53.004;6.770;2023-10-09T14:07:08;2.40;;;0.90;;
54177;SDS011;40085;53.004;6.770;2023-10-09T14:09:34;0.90;;;0.82;;
54177;SDS011;40085;53.004;6.770;2023-10-09T14:12:03;0.93;;;0.80;;
54177;SDS011;40085;53.004;6.770;2023-10-09T14:14:40;0.98;;;0.80;;
54177;SDS011;40085;53.004;6.770;2023-10-09T14:17:12;0.73;;;0.73;;
54177;SDS011;40085;53.004;6.770;2023-10-09T14:19:39;0.80;;;0.70;;
54177;SDS011;40085;53.004;6.770;2023-10-09T14:22:15;1.13;;;0.93;;
54177;SDS011;40085;53.004;6.770;2023-10-09T14:24:41;0.93;;;0.77;;
54177;SDS011;40085;53.004;6.770;2023-10-09T14:27:10;1.80;;;0.60;;
54177;SDS011;40085;53.004;6.770;2023-10-09T14:29:43;0.75;;;0.60;;
54177;SDS011;40085;53.004;6.770;2023-10-09T14:32:10;0.80;;;0.50;;
54177;SDS011;40085;53.004;6.770;2023-10-09T14:34:38;0.85;;;0.70;;
54177;SDS011;40085;53.004;6.770;2023-10-09T14:37:08;0.85;;;0.70;;
54177;SDS011;40085;53.004;6.770;2023-10-09T14:39:38;2.28;;;1.13;;
54177;SDS011;40085;53.004;6.770;2023-10-09T14:42:05;1.08;;;0.70;;
54177;SDS011;40085;53.004;6.770;2023-10-09T14:44:35;1.43;;;0.70;;
54177;SDS011;40085;53.004;6.770;2023-10-09T14:47:05;0.80;;;0.63;;
54177;SDS011;40085;53.004;6.770;2023-10-09T14:49:32;0.95;;;0.80;;
54177;SDS011;40085;53.004;6.770;2023-10-09T14:52:02;0.68;;;0.60;;
54177;SDS011;40085;53.004;6.770;2023-10-09T14:54:28;1.08;;;0.75;;
54177;SDS011;40085;53.004;6.770;2023-10-09T14:56:54;1.15;;;0.82;;
54177;SDS011;40085;53.004;6.770;2023-10-09T14:59:21;1.73;;;0.98;;
54177;SDS011;40085;53.004;6.770;2023-10-09T15:01:47;0.90;;;0.60;;
54177;SDS011;40085;53.004;6.770;2023-10-09T15:04:15;0.85;;;0.77;;
54177;SDS011;40085;53.004;6.770;2023-10-09T15:06:41;0.73;;;0.73;;
54177;SDS011;40085;53.004;6.770;2023-10-09T15:09:07;1.88;;;1.02;;
54177;SDS011;40085;53.004;6.770;2023-10-09T15:11:34;1.80;;;1.10;;
54177;SDS011;40085;53.004;6.770;2023-10-09T15:14:02;1.48;;;1.00;;
54177;SDS011;40085;53.004;6.770;2023-10-09T15:16:31;1.23;;;1.08;;
54177;SDS011;40085;53.004;6.770;2023-10-09T15:18:57;1.90;;;1.13;;
54177;SDS011;40085;53.004;6.770;2023-10-09T15:21:23;0.80;;;0.80;;
54177;SDS011;40085;53.004;6.770;2023-10-09T15:23:54;0.70;;;0.68;;
54177;SDS011;40085;53.004;6.770;2023-10-09T15:26:20;0.88;;;0.80;;
54177;SDS011;40085;53.004;6.770;2023-10-09T15:28:47;1.30;;;0.73;;
54177;SDS011;40085;53.004;6.770;2023-10-09T15:31:15;1.05;;;0.80;;
54177;SDS011;40085;53.004;6.770;2023-10-09T15:33:42;1.17;;;0.70;;
54177;SDS011;40085;53.004;6.770;2023-10-09T15:36:12;1.80;;;0.73;;
54177;SDS011;40085;53.004;6.770;2023-10-09T15:38:38;1.48;;;0.93;;
54177;SDS011;40085;53.004;6.770;2023-10-09T15:41:04;1.30;;;1.00;;
54177;SDS011;40085;53.004;6.770;2023-10-09T15:43:35;0.70;;;0.60;;
54177;SDS011;40085;53.004;6.770;2023-10-09T15:46:01;1.55;;;0.80;;
54177;SDS011;40085;53.004;6.770;2023-10-09T15:48:27;1.50;;;0.85;;
54177;SDS011;40085;53.004;6.770;2023-10-09T15:50:53;0.73;;;0.68;;